Time,TemperatureF,DewpointF,PressureIn,WindDirection,WindDirectionDegrees,WindSpeedMPH,WindSpeedGustMPH,Humidity,HourlyPrecipIn,Conditions,Clouds,dailyrainin,SoftwareType,DateUTC
2013-02-26 00:03:00,18.1,5.8,29.77,SE,135,4.7,-999.0,58,-99.99,,,0.00,Acu-Link.com,2013-02-26 07:03:00,
2013-02-26 00:18:00,18.0,6.1,29.76,SE,135,4.2,-999.0,59,-99.99,,,0.00,Acu-Link.com,2013-02-26 07:18:00,
2013-02-26 00:33:00,18.0,6.1,29.76,SE,135,3.2,-999.0,59,-99.99,,,0.00,Acu-Link.com,2013-02-26 07:33:00,
2013-02-26 00:48:00,17.1,5.3,29.76,ESE,112,3.7,-999.0,59,-99.99,,,0.00,Acu-Link.com,2013-02-26 07:48:00,
2013-02-26 01:04:00,17.1,5.6,29.77,SE,135,3.7,-999.0,60,-99.99,,,0.00,Acu-Link.com,2013-02-26 08:04:00,
2013-02-26 01:19:00,17.2,5.7,29.76,ESE,112,2.2,-999.0,60,-99.99,,,0.00,Acu-Link.com,2013-02-26 08:19:00,
2013-02-26 01:35:00,17.4,5.9,29.77,ESE,112,3.2,-999.0,60,-99.99,,,0.00,Acu-Link.com,2013-02-26 08:35:00,
2013-02-26 01:50:00,18.0,6.5,29.76,SE,135,5.3,-999.0,60,-99.99,,,0.00,Acu-Link.com,2013-02-26 08:50:00,
2013-02-26 05:04:00,15.6,4.6,29.70,SE,135,3.7,-999.0,61,-99.99,,,0.00,Acu-Link.com,2013-02-26 12:04:00,
2013-02-26 05:20:00,15.4,4.0,29.71,ESE,112,5.3,-999.0,60,-99.99,,,0.00,Acu-Link.com,2013-02-26 12:20:00,
2013-02-26 05:35:00,14.9,3.9,29.70,ESE,112,4.2,-999.0,61,-99.99,,,0.00,Acu-Link.com,2013-02-26 12:35:00,
2013-02-26 05:50:00,14.7,3.4,29.69,ESE,112,5.3,-999.0,60,-99.99,,,0.00,Acu-Link.com,2013-02-26 12:50:00,
2013-02-26 06:05:00,15.1,3.4,29.69,ESE,112,4.7,-999.0,59,-99.99,,,0.00,Acu-Link.com,2013-02-26 13:05:00,
2013-02-26 06:20:00,14.7,3.0,29.69,SE,135,4.2,-999.0,59,-99.99,,,0.00,Acu-Link.com,2013-02-26 13:20:00,
2013-02-26 06:36:00,14.4,3.1,29.69,ESE,112,7.8,-999.0,60,-99.99,,,0.00,Acu-Link.com,2013-02-26 13:36:00,
2013-02-26 06:51:00,14.4,3.1,29.70,SE,135,3.2,-999.0,60,-99.99,,,0.00,Acu-Link.com,2013-02-26 13:51:00,
2013-02-26 07:06:00,13.6,2.3,29.69,SE,135,6.8,-999.0,60,-99.99,,,0.00,Acu-Link.com,2013-02-26 14:06:00,
2013-02-26 07:21:00,16.2,4.4,29.68,SE,135,5.3,-999.0,59,-99.99,,,0.00,Acu-Link.com,2013-02-26 14:21:00,
2013-02-26 07:37:00,19.6,6.1,29.69,SE,135,5.3,-999.0,55,-99.99,,,0.00,Acu-Link.com,2013-02-26 14:37:00,
2013-02-26 07:52:00,24.1,8.6,29.68,SE,135,5.3,-999.0,51,-99.99,,,0.00,Acu-Link.com,2013-02-26 14:52:00,
2013-02-26 08:07:00,26.2,8.8,29.67,SE,135,4.7,-999.0,47,-99.99,,,0.00,Acu-Link.com,2013-02-26 15:07:00,
2013-02-26 08:22:00,29.7,11.0,29.68,SE,135,3.2,-999.0,45,-99.99,,,0.00,Acu-Link.com,2013-02-26 15:22:00,
2013-02-26 08:37:00,32.5,9.7,29.67,ESE,112,0.0,-999.0,38,-99.99,,,0.00,Acu-Link.com,2013-02-26 15:37:00,
2013-02-26 08:53:00,32.2,9.5,29.68,NW,315,7.3,-999.0,38,-99.99,,,0.00,Acu-Link.com,2013-02-26 15:53:00,
2013-02-26 09:10:00,32.7,9.9,29.67,West,270,4.7,-999.0,38,-99.99,,,0.00,Acu-Link.com,2013-02-26 16:10:00,
2013-02-26 09:25:00,34.3,11.9,29.66,WNW,292,8.3,-999.0,39,-99.99,,,0.00,Acu-Link.com,2013-02-26 16:25:00,
2013-02-26 09:41:00,33.4,10.0,29.66,West,270,1.7,-999.0,37,-99.99,,,0.00,Acu-Link.com,2013-02-26 16:41:00,
2013-02-26 09:56:00,36.7,13.5,29.65,WSW,247,9.4,-999.0,38,-99.99,,,0.00,Acu-Link.com,2013-02-26 16:56:00,
2013-02-26 10:11:00,37.2,12.1,29.64,West,270,14.5,-999.0,35,-99.99,,,0.00,Acu-Link.com,2013-02-26 17:11:00,
2013-02-26 10:26:00,36.9,11.2,29.64,West,270,14.5,-999.0,34,-99.99,,,0.00,Acu-Link.com,2013-02-26 17:26:00,
2013-02-26 10:41:00,37.6,10.4,29.64,SW,225,19.1,-999.0,32,-99.99,,,0.00,Acu-Link.com,2013-02-26 17:41:00,
2013-02-26 10:56:00,39.0,12.4,29.63,WSW,247,13.5,-999.0,33,-99.99,,,0.00,Acu-Link.com,2013-02-26 17:56:00,
2013-02-26 11:11:00,35.2,8.3,29.63,SSW,202,14.5,-999.0,32,-99.99,,,0.00,Acu-Link.com,2013-02-26 18:11:00,
2013-02-26 11:26:00,34.9,9.4,29.61,SW,225,21.2,-999.0,34,-99.99,,,0.00,Acu-Link.com,2013-02-26 18:26:00,
2013-02-26 11:42:00,35.6,8.0,29.62,WSW,247,18.1,-999.0,31,-99.99,,,0.00,Acu-Link.com,2013-02-26 18:42:00,
2013-02-26 11:57:00,35.6,6.5,29.62,West,270,22.7,-999.0,29,-99.99,,,0.00,Acu-Link.com,2013-02-26 18:57:00,
2013-02-26 12:12:00,34.2,6.8,29.61,WSW,247,25.3,-999.0,31,-99.99,,,0.00,Acu-Link.com,2013-02-26 19:12:00,
2013-02-26 12:27:00,34.0,8.6,29.60,West,270,23.3,-999.0,34,-99.99,,,0.00,Acu-Link.com,2013-02-26 19:27:00,
2013-02-26 12:43:00,35.1,8.2,29.60,WNW,292,15.5,-999.0,32,-99.99,,,0.00,Acu-Link.com,2013-02-26 19:43:00,
2013-02-26 12:58:00,34.0,8.0,29.59,WSW,247,18.1,-999.0,33,-99.99,,,0.00,Acu-Link.com,2013-02-26 19:58:00,
2013-02-26 13:13:00,35.4,8.5,29.60,West,270,17.1,-999.0,32,-99.99,,,0.00,Acu-Link.com,2013-02-26 20:13:00,
2013-02-26 13:28:00,32.7,-0.1,29.60,West,270,20.2,-999.0,24,-99.99,,,0.00,Acu-Link.com,2013-02-26 20:28:00,
2013-02-26 13:43:00,38.3,8.1,29.61,West,270,23.8,-999.0,28,-99.99,,,0.00,Acu-Link.com,2013-02-26 20:43:00,
2013-02-26 14:01:00,32.0,4.8,29.61,SW,225,25.8,-999.0,31,-99.99,,,0.00,Acu-Link.com,2013-02-26 21:01:00,
2013-02-26 14:20:00,34.2,2.9,29.61,West,270,21.7,-999.0,26,-99.99,,,0.00,Acu-Link.com,2013-02-26 21:20:00,
2013-02-26 14:39:00,33.3,2.2,29.61,West,270,19.1,-999.0,26,-99.99,,,0.00,Acu-Link.com,2013-02-26 21:39:00,
2013-02-26 14:54:00,37.8,5.2,29.63,WSW,247,13.5,-999.0,25,-99.99,,,0.00,Acu-Link.com,2013-02-26 21:54:00,
2013-02-26 15:12:00,37.6,1.2,29.62,WSW,247,13.0,-999.0,21,-99.99,,,0.00,Acu-Link.com,2013-02-26 22:12:00,
2013-02-26 15:30:00,33.3,-3.4,29.64,West,270,16.6,-999.0,20,-99.99,,,0.00,Acu-Link.com,2013-02-26 22:30:00,
2013-02-26 15:45:00,34.0,-1.8,29.64,West,270,24.8,-999.0,21,-99.99,,,0.00,Acu-Link.com,2013-02-26 22:45:00,
2013-02-26 16:08:00,33.3,-2.4,29.64,WSW,247,17.6,-999.0,21,-99.99,,,0.00,Acu-Link.com,2013-02-26 23:08:00,
2013-02-26 16:24:00,31.5,0.6,29.65,WSW,247,16.1,-999.0,26,-99.99,,,0.00,Acu-Link.com,2013-02-26 23:24:00,
2013-02-26 16:45:00,30.2,3.2,29.67,West,270,17.1,-999.0,31,-99.99,,,0.00,Acu-Link.com,2013-02-26 23:45:00,
2013-02-26 17:01:00,29.8,2.9,29.67,West,270,10.9,-999.0,31,-99.99,,,0.00,Acu-Link.com,2013-02-27 00:01:00,
2013-02-26 17:24:00,30.4,3.4,29.68,West,270,9.4,-999.0,31,-99.99,,,0.00,Acu-Link.com,2013-02-27 00:24:00,
2013-02-26 17:40:00,29.8,2.9,29.70,West,270,10.4,-999.0,31,-99.99,,,0.00,Acu-Link.com,2013-02-27 00:40:00,
2013-02-26 17:55:00,28.9,4.1,29.71,West,270,7.3,-999.0,34,-99.99,,,0.00,Acu-Link.com,2013-02-27 00:55:00,
2013-02-26 18:17:00,28.4,4.9,29.72,West,270,8.3,-999.0,36,-99.99,,,0.00,Acu-Link.com,2013-02-27 01:17:00,
2013-02-26 18:33:00,28.4,4.9,29.74,West,270,9.4,-999.0,36,-99.99,,,0.00,Acu-Link.com,2013-02-27 01:33:00,
2013-02-26 18:49:00,27.7,6.0,29.75,WNW,292,12.5,-999.0,39,-99.99,,,0.00,Acu-Link.com,2013-02-27 01:49:00,
2013-02-26 19:06:00,27.1,7.6,29.77,NW,315,16.1,-999.0,43,-99.99,,,0.00,Acu-Link.com,2013-02-27 02:06:00,
2013-02-26 19:45:00,21.9,16.4,29.82,West,270,4.2,-999.0,79,-99.99,,,0.00,Acu-Link.com,2013-02-27 02:45:00,
2013-02-26 20:02:00,21.9,17.0,29.80,SSW,202,6.3,-999.0,81,-99.99,,,0.00,Acu-Link.com,2013-02-27 03:02:00,
2013-02-26 20:18:00,21.6,16.7,29.80,South,180,3.7,-999.0,81,-99.99,,,0.00,Acu-Link.com,2013-02-27 03:18:00,
2013-02-26 20:36:00,21.7,16.8,29.81,South,180,4.2,-999.0,81,-99.99,,,0.00,Acu-Link.com,2013-02-27 03:36:00,
2013-02-26 20:56:00,22.3,16.8,29.83,South,180,5.8,-999.0,79,-99.99,,,0.00,Acu-Link.com,2013-02-27 03:56:00,
2013-02-26 21:17:00,21.7,16.8,29.83,West,270,2.7,-999.0,81,-99.99,,,0.00,Acu-Link.com,2013-02-27 04:17:00,
2013-02-26 21:35:00,21.2,16.0,29.88,SSW,202,5.3,-999.0,80,-99.99,,,0.00,Acu-Link.com,2013-02-27 04:35:00,
2013-02-26 21:50:00,21.0,15.8,29.85,SSW,202,2.7,-999.0,80,-99.99,,,0.00,Acu-Link.com,2013-02-27 04:50:00,
2013-02-26 22:13:00,20.7,15.5,29.87,South,180,5.8,-999.0,80,-99.99,,,0.00,Acu-Link.com,2013-02-27 05:13:00,
2013-02-26 22:28:00,20.1,14.9,29.87,South,180,3.7,-999.0,80,-99.99,,,0.00,Acu-Link.com,2013-02-27 05:28:00,
2013-02-26 22:43:00,19.2,12.9,29.89,NNW,337,4.7,-999.0,76,-99.99,,,0.00,Acu-Link.com,2013-02-27 05:43:00,
2013-02-26 22:59:00,20.5,12.9,29.89,West,270,12.5,-999.0,72,-99.99,,,0.00,Acu-Link.com,2013-02-27 05:59:00,
2013-02-26 23:14:00,19.4,12.2,29.91,NW,315,3.2,-999.0,73,-99.99,,,0.00,Acu-Link.com,2013-02-27 06:14:00,
2013-02-26 23:29:00,19.2,12.0,29.90,SSE,157,4.2,-999.0,73,-99.99,,,0.00,Acu-Link.com,2013-02-27 06:29:00,
2013-02-26 23:44:00,18.7,12.1,29.92,SW,225,4.2,-999.0,75,-99.99,,,0.00,Acu-Link.com,2013-02-27 06:44:00,